createdAt,value
2023-01-17T00:01:59.374Z,97288.56
2023-01-17T00:04:51.173Z,97280.94
2023-01-17T00:07:43.679Z,97278.34
2023-01-17T00:10:19.671Z,97275.75
2023-01-17T00:12:54.588Z,97279.31
2023-01-17T00:15:29.311Z,97274.09
2023-01-17T00:18:03.608Z,97273.13
2023-01-17T00:20:54.801Z,97267.88
2023-01-17T00:23:46.918Z,97273.91
2023-01-17T00:26:20.873Z,97268.06
2023-01-17T00:28:53.321Z,97269.81
2023-01-17T00:31:26.011Z,97270.72
2023-01-17T00:33:58.407Z,97269.03
2023-01-17T00:36:30.946Z,97266.53
2023-01-17T00:39:04.748Z,97262.25
2023-01-17T00:41:37.371Z,97272.44
2023-01-17T00:44:28.284Z,97268.94
2023-01-17T00:47:19.317Z,97261.97
2023-01-17T00:50:10.313Z,97267.81
2023-01-17T00:53:01.611Z,97260.94
2023-01-17T00:55:53.810Z,97260.81
2023-01-17T00:58:45.083Z,97271.00
2023-01-17T01:01:36.374Z,97276.13
2023-01-17T01:04:27.848Z,97265.53
2023-01-17T01:07:19.403Z,97262.91
2023-01-17T01:10:10.604Z,97263.69
2023-01-17T01:13:02.877Z,97262.00
2023-01-17T01:15:54.284Z,97261.09
2023-01-17T01:18:45.444Z,97270.38
2023-01-17T01:21:37.013Z,97266.06
2023-01-17T01:24:28.233Z,97263.53
2023-01-17T01:27:19.772Z,97265.31
2023-01-17T01:30:12.007Z,97262.69
2023-01-17T01:33:03.387Z,97263.41
2023-01-17T01:35:38.047Z,97264.22
2023-01-17T01:38:11.888Z,97263.25
2023-01-17T01:40:47.753Z,97258.88
2023-01-17T01:43:39.965Z,97257.25
2023-01-17T01:46:19.280Z,97255.53
2023-01-17T01:48:56.321Z,97252.19
2023-01-17T01:51:36.118Z,97259.88
2023-01-17T01:54:15.174Z,97256.50
2023-01-17T01:56:50.002Z,97243.66
2023-01-17T01:59:24.841Z,97246.25
2023-01-17T02:01:59.701Z,97249.72
2023-01-17T02:04:33.449Z,97248.84
2023-01-17T02:07:12.080Z,97250.56
2023-01-17T02:09:45.806Z,97248.97
2023-01-17T02:12:21.786Z,97249.00
2023-01-17T02:14:55.590Z,97253.25
2023-01-17T02:17:46.926Z,97247.25
2023-01-17T02:20:57.107Z,97249.88
2023-01-17T02:23:54.451Z,97250.00
2023-01-17T02:26:58.918Z,97250.88
2023-01-17T02:30:04.736Z,97252.66
2023-01-17T02:32:54.099Z,97252.72
2023-01-17T02:35:35.148Z,97257.94
2023-01-17T02:38:18.536Z,97243.31
2023-01-17T02:40:56.598Z,97246.78
2023-01-17T02:43:30.694Z,97241.72
2023-01-17T02:46:04.745Z,97236.56
2023-01-17T02:48:40.465Z,97244.25
2023-01-17T02:51:41.259Z,97241.75
2023-01-17T02:54:33.198Z,97235.75
2023-01-17T02:57:24.594Z,97238.41
2023-01-17T03:00:04.487Z,97246.19
2023-01-17T03:02:48.352Z,97236.69
2023-01-17T03:05:30.012Z,97242.72
2023-01-17T03:08:04.702Z,97241.91
2023-01-17T03:10:39.610Z,97247.03
2023-01-17T03:13:13.227Z,97243.75
2023-01-17T03:15:47.436Z,97246.38
2023-01-17T03:18:21.219Z,97242.91
2023-01-17T03:20:56.243Z,97244.69
2023-01-17T03:23:30.012Z,97241.38
2023-01-17T03:26:03.778Z,97248.19
2023-01-17T03:28:37.271Z,97243.19
2023-01-17T03:31:11.207Z,97244.91
2023-01-17T03:33:44.638Z,97250.03
2023-01-17T03:36:20.286Z,97249.22
2023-01-17T03:38:53.788Z,97244.97
2023-01-17T03:41:27.551Z,97248.50
2023-01-17T03:44:01.031Z,97255.53
2023-01-17T03:46:34.845Z,97256.47
2023-01-17T03:49:08.247Z,97253.06
2023-01-17T03:51:43.374Z,97258.34
2023-01-17T03:54:16.863Z,97255.72
2023-01-17T03:56:50.767Z,97262.63
2023-01-17T03:59:24.265Z,97260.88
2023-01-17T04:01:58.108Z,97253.19
2023-01-17T04:04:31.692Z,97254.88
2023-01-17T04:07:06.829Z,97250.69
2023-01-17T04:09:40.415Z,97249.63
2023-01-17T04:12:14.093Z,97247.16
2023-01-17T04:14:48.102Z,97248.03
2023-01-17T04:17:21.903Z,97248.13
2023-01-17T04:19:55.442Z,97254.03
2023-01-17T04:22:31.556Z,97244.19
2023-01-17T04:25:05.585Z,97244.75
2023-01-17T04:27:39.391Z,97252.72
2023-01-17T04:30:13.657Z,97257.94
2023-01-17T04:32:47.479Z,97258.59
2023-01-17T04:35:21.111Z,97254.16
2023-01-17T04:37:56.154Z,97264.16
2023-01-17T04:40:29.669Z,97277.16
2023-01-17T04:43:03.479Z,97272.53
2023-01-17T04:45:38.687Z,97263.44
2023-01-17T04:48:12.901Z,97271.88
2023-01-17T04:50:46.316Z,97270.97
2023-01-17T04:53:21.438Z,97279.41
2023-01-17T04:55:55.051Z,97281.81
2023-01-17T04:58:28.872Z,97282.78
2023-01-17T05:01:04.111Z,97290.38
2023-01-17T05:03:38.578Z,97293.75
2023-01-17T05:06:12.509Z,97294.13
2023-01-17T05:08:47.525Z,97298.56
2023-01-17T05:11:21.058Z,97298.44
2023-01-17T05:13:54.787Z,97298.56
2023-01-17T05:16:28.511Z,97295.91
2023-01-17T05:19:02.826Z,97299.25
2023-01-17T05:21:36.456Z,97302.06
2023-01-17T05:24:11.563Z,97301.59
2023-01-17T05:26:45.106Z,97311.16
2023-01-17T05:29:18.790Z,97302.38
2023-01-17T05:31:52.268Z,97305.78
2023-01-17T05:34:26.368Z,97310.03
2023-01-17T05:37:00.314Z,97318.06
2023-01-17T05:39:35.587Z,97324.22
2023-01-17T05:42:09.385Z,97323.28
2023-01-17T05:44:43.195Z,97335.25
2023-01-17T05:47:16.787Z,97342.19
2023-01-17T05:49:50.603Z,97355.91
2023-01-17T05:52:24.441Z,97348.28
2023-01-17T05:54:59.732Z,97357.84
2023-01-17T05:57:33.459Z,97365.84
2023-01-17T06:00:08.765Z,97365.78
2023-01-17T06:02:43.091Z,97375.91
2023-01-17T06:05:17.703Z,97386.09
2023-01-17T06:07:51.593Z,97397.25
2023-01-17T06:10:28.365Z,97405.66
2023-01-17T06:13:05.100Z,97400.06
2023-01-17T06:15:39.851Z,97403.47
2023-01-17T06:18:15.503Z,97419.78
2023-01-17T06:20:54.235Z,97413.53
2023-01-17T06:23:28.249Z,97430.69
2023-01-17T06:26:05.275Z,97439.19
2023-01-17T06:28:38.850Z,97445.03
2023-01-17T06:31:12.648Z,97448.47
2023-01-17T06:33:46.169Z,97462.97
2023-01-17T06:36:20.204Z,97463.84
2023-01-17T06:38:53.937Z,97474.88
2023-01-17T06:41:29.291Z,97480.53
2023-01-17T06:44:03.061Z,97495.28
2023-01-17T06:46:36.944Z,97498.53
2023-01-17T06:49:10.421Z,97501.47
2023-01-17T06:51:44.361Z,97508.56
2023-01-17T06:54:18.856Z,97516.03
2023-01-17T06:56:54.068Z,97521.00
2023-01-17T06:59:27.690Z,97532.13
2023-01-17T07:02:01.554Z,97528.22
2023-01-17T07:04:35.747Z,97544.91
2023-01-17T07:07:09.690Z,97550.94
2023-01-17T07:09:45.327Z,97563.78
2023-01-17T07:12:20.561Z,97562.03
2023-01-17T07:14:54.113Z,97567.06
2023-01-17T07:17:28.089Z,97563.78
2023-01-17T07:20:01.661Z,97577.28
2023-01-17T07:22:37.631Z,97575.72
2023-01-17T07:25:11.658Z,97585.13
2023-01-17T07:27:47.292Z,97592.72
2023-01-17T07:30:21.735Z,97588.19
2023-01-17T07:32:56.233Z,97607.31
2023-01-17T07:35:29.791Z,97613.44
2023-01-17T07:38:04.018Z,97617.06
2023-01-17T07:40:42.014Z,97622.31
2023-01-17T07:43:17.692Z,97625.94
2023-01-17T07:45:52.220Z,97634.69
2023-01-17T07:48:26.318Z,97637.94
2023-01-17T07:51:00.553Z,97646.69
2023-01-17T07:53:34.427Z,97645.91
2023-01-17T07:56:09.244Z,97661.44
2023-01-17T07:58:44.342Z,97673.66
2023-01-17T08:01:18.162Z,97674.47
2023-01-17T08:03:54.792Z,97683.06
2023-01-17T08:06:30.056Z,97677.41
2023-01-17T08:09:04.106Z,97694.94
2023-01-17T08:11:37.802Z,97712.28
2023-01-17T08:14:13.064Z,97720.88
2023-01-17T08:16:46.762Z,97727.22
2023-01-17T08:19:22.319Z,97723.44
2023-01-17T08:21:55.883Z,97720.75
2023-01-17T08:24:29.710Z,97715.75
2023-01-17T08:27:03.305Z,97726.31
2023-01-17T08:29:41.300Z,97725.09
2023-01-17T08:32:15.042Z,97728.81
2023-01-17T08:34:48.830Z,97733.81
2023-01-17T08:37:22.429Z,97733.91
2023-01-17T08:39:56.129Z,97734.06
2023-01-17T08:42:30.560Z,97750.66
2023-01-17T08:45:08.278Z,97751.88
2023-01-17T08:47:42.086Z,97760.81
2023-01-17T08:50:20.552Z,97765.72
2023-01-17T08:53:00.944Z,97768.41
2023-01-17T08:55:39.480Z,97771.44
2023-01-17T08:58:14.092Z,97768.69
2023-01-17T09:00:49.655Z,97771.84
2023-01-17T09:03:23.408Z,97785.66
2023-01-17T09:06:02.312Z,97785.06
2023-01-17T09:08:36.615Z,97782.66
2023-01-17T09:11:12.222Z,97789.44
2023-01-17T09:13:45.821Z,97803.44
2023-01-17T09:16:21.094Z,97797.97
2023-01-17T09:18:55.318Z,97788.34
2023-01-17T09:21:29.073Z,97798.50
2023-01-17T09:24:02.683Z,97806.34
2023-01-17T09:26:36.719Z,97808.38
2023-01-17T09:29:10.259Z,97813.91
2023-01-17T09:31:48.239Z,97813.84
2023-01-17T09:34:24.217Z,97830.34
2023-01-17T09:36:57.922Z,97825.25
2023-01-17T09:39:31.374Z,97834.94
2023-01-17T09:42:19.315Z,97835.59
2023-01-17T09:44:53.573Z,97848.78
2023-01-17T09:47:35.336Z,97859.28
2023-01-17T09:50:21.595Z,97864.59
2023-01-17T09:53:01.723Z,97872.81
2023-01-17T09:55:41.343Z,97874.09
2023-01-17T09:58:21.784Z,97864.81
2023-01-17T10:01:05.035Z,97871.22
2023-01-17T10:03:47.249Z,97868.16
2023-01-17T10:06:44.340Z,97872.72
2023-01-17T10:09:37.596Z,97875.41
2023-01-17T10:12:22.355Z,97877.91
2023-01-17T10:15:18.356Z,97866.84
2023-01-17T10:17:58.748Z,97871.13
2023-01-17T10:20:44.991Z,97881.66
2023-01-17T10:23:30.654Z,97879.28
2023-01-17T10:26:08.993Z,97887.22
2023-01-17T10:28:48.693Z,97878.19
2023-01-17T10:31:24.777Z,97887.91
2023-01-17T10:34:03.643Z,97888.31
2023-01-17T10:36:42.270Z,97894.22
2023-01-17T10:39:20.356Z,97892.81
2023-01-17T10:41:57.918Z,97880.19
2023-01-17T10:44:36.617Z,97894.06
2023-01-17T10:47:20.247Z,97904.50
2023-01-17T10:49:57.884Z,97899.41
2023-01-17T10:52:43.146Z,97899.78
2023-01-17T10:55:32.597Z,97899.25
2023-01-17T10:58:09.594Z,97902.81
2023-01-17T11:00:49.193Z,97891.63
2023-01-17T11:03:23.890Z,97895.38
2023-01-17T11:06:19.536Z,97906.47
2023-01-17T11:08:57.124Z,97913.97
2023-01-17T11:11:32.799Z,97923.28
2023-01-17T11:14:16.633Z,97923.97
2023-01-17T11:17:01.036Z,97930.75
2023-01-17T11:19:37.251Z,97924.69
2023-01-17T11:22:16.866Z,97912.91
2023-01-17T11:24:54.571Z,97923.94
2023-01-17T11:27:30.654Z,97935.22
2023-01-17T11:30:15.786Z,97936.81
2023-01-17T11:32:53.787Z,97913.66
2023-01-17T11:35:30.828Z,97929.63
2023-01-17T11:38:07.615Z,97929.59
2023-01-17T11:40:43.767Z,97934.84
2023-01-17T11:43:21.624Z,97937.88
2023-01-17T11:46:06.354Z,97929.59
2023-01-17T11:48:40.212Z,97929.59
2023-01-17T11:51:21.840Z,97931.44
2023-01-17T11:54:04.683Z,97928.44
2023-01-17T11:56:43.118Z,97930.78
2023-01-17T11:59:31.313Z,97924.59
2023-01-17T12:02:59.482Z,97944.72
2023-01-17T12:05:51.410Z,97956.72
2023-01-17T12:08:35.554Z,97944.16
2023-01-17T12:11:17.576Z,97951.94
2023-01-17T12:14:02.869Z,97961.41
2023-01-17T12:16:51.416Z,97956.88
2023-01-17T12:19:38.943Z,97970.25
2023-01-17T12:22:28.678Z,97971.72
2023-01-17T12:25:14.907Z,97975.22
2023-01-17T12:28:01.614Z,97971.00
2023-01-17T12:30:59.329Z,97973.41
2023-01-17T12:33:45.790Z,97967.06
2023-01-17T12:36:36.950Z,97972.22
2023-01-17T12:39:14.269Z,97968.75
2023-01-17T12:42:02.720Z,97977.19
2023-01-17T12:44:48.929Z,97982.91
2023-01-17T12:47:24.472Z,97978.34
2023-01-17T12:50:07.195Z,97981.22
2023-01-17T12:52:52.114Z,97980.03
2023-01-17T12:55:36.869Z,97983.63
2023-01-17T12:58:17.313Z,97984.91
2023-01-17T13:00:57.933Z,97998.94
2023-01-17T13:03:45.912Z,97991.53
2023-01-17T13:06:27.042Z,97998.84
2023-01-17T13:09:03.946Z,98002.63
2023-01-17T13:11:44.132Z,98004.69
2023-01-17T13:14:17.981Z,97999.34
2023-01-17T13:16:57.966Z,97998.38
2023-01-17T13:19:43.632Z,98008.03
2023-01-17T13:22:21.846Z,98008.25
2023-01-17T13:25:04.577Z,98013.19
2023-01-17T13:28:05.648Z,98028.47
2023-01-17T13:31:06.270Z,98016.66
2023-01-17T13:33:56.689Z,98020.56
2023-01-17T13:36:50.489Z,98020.00
2023-01-17T13:39:43.662Z,98023.84
2023-01-17T13:42:25.642Z,98028.25
2023-01-17T13:44:59.262Z,98032.69
2023-01-17T13:47:40.398Z,98032.25
2023-01-17T13:50:47.827Z,98030.31
2023-01-17T13:53:49.386Z,98040.00
2023-01-17T13:56:35.449Z,98038.22
2023-01-17T13:59:34.185Z,98046.88
2023-01-17T14:02:36.571Z,98056.22
2023-01-17T14:05:15.166Z,98050.13
2023-01-17T14:07:54.105Z,98058.66
2023-01-17T14:10:38.091Z,98058.91
2023-01-17T14:13:34.544Z,98063.81
2023-01-17T14:16:25.205Z,98063.22
2023-01-17T14:18:58.983Z,98072.75
2023-01-17T14:21:33.284Z,98072.28
2023-01-17T14:24:16.035Z,98069.75
2023-01-17T14:26:55.593Z,98064.81
2023-01-17T14:29:52.136Z,98072.00
2023-01-17T14:32:30.472Z,98074.16
2023-01-17T14:35:05.668Z,98077.06
2023-01-17T14:37:45.487Z,98089.16
2023-01-17T14:40:21.750Z,98083.44
2023-01-17T14:43:02.040Z,98082.31
2023-01-17T14:45:37.946Z,98092.22
2023-01-17T14:48:17.213Z,98089.41
2023-01-17T14:50:51.234Z,98097.06
2023-01-17T14:53:27.958Z,98099.75
2023-01-17T14:56:03.028Z,98102.09
2023-01-17T14:58:37.565Z,98105.91
2023-01-17T15:01:15.034Z,98110.00
2023-01-17T15:03:51.760Z,98110.88
2023-01-17T15:06:31.731Z,98108.31
2023-01-17T15:09:11.282Z,98113.38
2023-01-17T15:11:46.494Z,98109.75
2023-01-17T15:14:24.139Z,98120.22
2023-01-17T15:17:10.235Z,98114.44
2023-01-17T15:19:45.399Z,98121.94
2023-01-17T15:22:20.544Z,98124.63
2023-01-17T15:24:54.855Z,98127.06
2023-01-17T15:27:29.048Z,98131.03
2023-01-17T15:30:04.226Z,98133.38
2023-01-17T15:32:39.564Z,98140.84
2023-01-17T15:35:18.327Z,98142.28
2023-01-17T15:37:55.188Z,98140.16
2023-01-17T15:40:31.203Z,98139.16
2023-01-17T15:43:06.577Z,98144.09
2023-01-17T15:45:40.356Z,98146.88
2023-01-17T15:48:39.397Z,98148.38
2023-01-17T15:51:14.287Z,98147.28
2023-01-17T15:53:47.813Z,98148.91
2023-01-17T15:56:29.573Z,98143.53
2023-01-17T15:59:23.815Z,98146.72
2023-01-17T16:01:59.116Z,98148.84
2023-01-17T16:04:37.143Z,98157.28
2023-01-17T16:07:19.512Z,98149.56
2023-01-17T16:09:53.080Z,98159.66
2023-01-17T16:12:27.157Z,98164.88
2023-01-17T16:15:11.849Z,98164.88
2023-01-17T16:17:49.197Z,98165.88
2023-01-17T16:20:27.103Z,98173.47
2023-01-17T16:23:00.848Z,98173.38
2023-01-17T16:25:34.387Z,98178.34
2023-01-17T16:28:08.278Z,98178.34
2023-01-17T16:30:42.016Z,98186.13
2023-01-17T16:33:16.669Z,98196.25
2023-01-17T16:35:55.048Z,98192.81
2023-01-17T16:38:28.983Z,98187.81
2023-01-17T16:41:04.894Z,98191.19
2023-01-17T16:43:38.627Z,98192.75
2023-01-17T16:46:13.057Z,98191.88
2023-01-17T16:48:46.942Z,98195.38
2023-01-17T16:51:22.492Z,98201.94
2023-01-17T16:53:56.465Z,98202.38
2023-01-17T16:56:30.167Z,98209.94
2023-01-17T16:59:04.072Z,98208.88
2023-01-17T17:01:37.931Z,98220.09
2023-01-17T17:04:12.976Z,98214.53
2023-01-17T17:06:47.896Z,98219.50
2023-01-17T17:09:22.366Z,98221.94
2023-01-17T17:11:56.780Z,98229.50
2023-01-17T17:14:30.585Z,98230.97
2023-01-17T17:17:04.279Z,98236.09
2023-01-17T17:19:38.109Z,98237.72
2023-01-17T17:22:13.460Z,98235.09
2023-01-17T17:24:47.189Z,98235.88
2023-01-17T17:27:26.542Z,98249.47
2023-01-17T17:30:00.327Z,98248.59
2023-01-17T17:32:34.120Z,98244.34
2023-01-17T17:35:08.576Z,98252.19
2023-01-17T17:37:43.766Z,98254.44
2023-01-17T17:40:17.846Z,98254.22
2023-01-17T17:42:51.404Z,98254.88
2023-01-17T17:45:25.150Z,98269.25
2023-01-17T17:47:58.713Z,98260.53
2023-01-17T17:50:32.548Z,98270.06
2023-01-17T17:53:08.448Z,98275.13
2023-01-17T17:55:42.162Z,98278.34
2023-01-17T17:58:15.817Z,98282.84
2023-01-17T18:00:49.638Z,98275.78
2023-01-17T18:03:23.203Z,98272.16
2023-01-17T18:06:02.203Z,98277.28
2023-01-17T18:08:38.176Z,98279.63
2023-01-17T18:11:14.983Z,98287.25
2023-01-17T18:13:50.437Z,98289.91
2023-01-17T18:16:26.579Z,98288.38
2023-01-17T18:19:00.753Z,98295.19
2023-01-17T18:21:37.955Z,98297.63
2023-01-17T18:24:14.316Z,98289.75
2023-01-17T18:26:49.848Z,98304.22
2023-01-17T18:29:24.793Z,98306.69
2023-01-17T18:31:58.621Z,98304.78
2023-01-17T18:34:33.734Z,98303.84
2023-01-17T18:37:07.736Z,98303.91
2023-01-17T18:39:43.760Z,98304.78
2023-01-17T18:42:18.396Z,98309.13
2023-01-17T18:44:51.973Z,98312.50
2023-01-17T18:47:25.752Z,98308.88
2023-01-17T18:49:59.648Z,98317.47
2023-01-17T18:52:35.062Z,98316.31
2023-01-17T18:55:10.201Z,98320.66
2023-01-17T18:57:44.465Z,98324.38
2023-01-17T19:00:19.569Z,98325.00
2023-01-17T19:02:53.690Z,98312.88
2023-01-17T19:05:27.602Z,98316.31
2023-01-17T19:08:01.323Z,98319.78
2023-01-17T19:10:36.218Z,98321.47
2023-01-17T19:13:10.397Z,98314.50
2023-01-17T19:15:43.937Z,98315.38
2023-01-17T19:18:17.846Z,98332.38
2023-01-17T19:20:51.449Z,98334.88
2023-01-17T19:23:25.144Z,98328.94
2023-01-17T19:26:00.266Z,98329.66
2023-01-17T19:28:38.060Z,98330.63
2023-01-17T19:31:14.001Z,98341.84
2023-01-17T19:33:49.480Z,98331.41
2023-01-17T19:36:25.126Z,98339.03
2023-01-17T19:39:05.024Z,98332.72
2023-01-17T19:41:43.997Z,98339.53
2023-01-17T19:44:17.759Z,98349.22
2023-01-17T19:46:51.327Z,98349.22
2023-01-17T19:49:25.256Z,98351.50
2023-01-17T19:51:58.808Z,98355.53
2023-01-17T19:54:32.671Z,98350.97
2023-01-17T19:57:07.824Z,98355.31
2023-01-17T19:59:41.696Z,98347.28
2023-01-17T20:02:15.390Z,98353.31
2023-01-17T20:04:49.474Z,98359.47
2023-01-17T20:07:22.966Z,98359.25
2023-01-17T20:09:57.636Z,98354.03
2023-01-17T20:12:32.915Z,98358.03
2023-01-17T20:15:07.628Z,98362.53
2023-01-17T20:17:41.349Z,98362.38
2023-01-17T20:20:15.777Z,98366.47
2023-01-17T20:22:49.460Z,98368.75
2023-01-17T20:25:23.234Z,98373.06
2023-01-17T20:27:58.503Z,98371.22
2023-01-17T20:30:32.973Z,98369.13
2023-01-17T20:33:09.015Z,98374.19
2023-01-17T20:35:42.782Z,98373.22
2023-01-17T20:38:16.435Z,98375.78
2023-01-17T20:40:55.144Z,98377.38
2023-01-17T20:43:31.497Z,98377.72
2023-01-17T20:46:05.880Z,98375.41
2023-01-17T20:48:45.394Z,98382.22
2023-01-17T20:51:20.729Z,98376.28
2023-01-17T20:53:56.415Z,98380.44
2023-01-17T20:56:34.413Z,98389.03
2023-01-17T20:59:12.834Z,98389.19
2023-01-17T21:01:47.047Z,98387.97
2023-01-17T21:04:25.591Z,98383.47
2023-01-17T21:06:59.476Z,98387.09
2023-01-17T21:09:33.347Z,98385.16
2023-01-17T21:12:07.227Z,98388.38
2023-01-17T21:14:42.959Z,98383.31
2023-01-17T21:17:17.075Z,98392.94
2023-01-17T21:19:50.596Z,98393.38
2023-01-17T21:22:24.319Z,98386.50
2023-01-17T21:24:58.794Z,98393.31
2023-01-17T21:27:32.619Z,98393.22
2023-01-17T21:30:09.813Z,98394.91
2023-01-17T21:32:43.685Z,98401.78
2023-01-17T21:35:17.428Z,98406.50
2023-01-17T21:37:51.400Z,98413.88
2023-01-17T21:40:24.901Z,98418.72
2023-01-17T21:42:58.657Z,98409.06
2023-01-17T21:45:37.716Z,98407.22
2023-01-17T21:48:13.146Z,98415.28
2023-01-17T21:50:47.246Z,98414.94
2023-01-17T21:53:21.021Z,98423.53
2023-01-17T21:56:17.792Z,98419.38
2023-01-17T21:58:54.557Z,98419.44
2023-01-17T22:01:33.278Z,98422.53
2023-01-17T22:04:07.120Z,98422.34
2023-01-17T22:06:41.129Z,98432.50
2023-01-17T22:09:15.072Z,98441.09
2023-01-17T22:11:48.686Z,98439.31
2023-01-17T22:14:22.542Z,98451.34
2023-01-17T22:16:57.758Z,98451.50
2023-01-17T22:19:31.445Z,98450.63
2023-01-17T22:22:04.999Z,98453.19
2023-01-17T22:24:40.191Z,98451.50
2023-01-17T22:27:13.897Z,98461.59
2023-01-17T22:29:47.735Z,98475.72
2023-01-17T22:32:22.661Z,98479.88
2023-01-17T22:34:56.390Z,98482.78
2023-01-17T22:37:29.978Z,98479.75
2023-01-17T22:40:04.988Z,98488.59
2023-01-17T22:42:38.590Z,98490.84
2023-01-17T22:45:12.790Z,98497.47
2023-01-17T22:47:47.787Z,98495.16
2023-01-17T22:50:23.392Z,98492.97
2023-01-17T22:52:57.442Z,98487.41
2023-01-17T22:55:31.444Z,98483.78
2023-01-17T22:58:04.944Z,98485.88
2023-01-17T23:00:38.727Z,98476.31
2023-01-17T23:03:13.831Z,98480.34
2023-01-17T23:05:47.637Z,98487.94
2023-01-17T23:08:21.170Z,98488.03
2023-01-17T23:11:12.422Z,98489.44
2023-01-17T23:13:45.932Z,98497.09
2023-01-17T23:16:37.146Z,98493.47
2023-01-17T23:19:24.290Z,98493.38
2023-01-17T23:22:19.003Z,98496.81
2023-01-17T23:24:53.984Z,98500.00
2023-01-17T23:27:47.006Z,98501.84
2023-01-17T23:30:23.476Z,98508.94
2023-01-17T23:32:59.314Z,98504.78
2023-01-17T23:35:41.473Z,98513.44
2023-01-17T23:38:29.962Z,98516.19
2023-01-17T23:41:23.422Z,98518.28
2023-01-17T23:43:59.325Z,98521.63
2023-01-17T23:46:33.575Z,98527.50
2023-01-17T23:49:07.339Z,98518.06
2023-01-17T23:51:42.519Z,98519.44
2023-01-17T23:54:16.288Z,98529.78
2023-01-17T23:56:50.100Z,98526.75
2023-01-17T23:59:23.984Z,98528.31
